x

Central Gulf Of Alaska - 265nm West Of Cape Ommaney, Akk (46085) Wave Buoy

5:50am - Thu 18th Sep 2014 All times are UTC.

  • Sig Wave height 10.2ft
  • Peak Period 8s
  • Average Period 7s
  • Wind
    16mph, 20mph gusts
  • Sea Temp 58°f
  • Air Temp 58°f
  • Sea Pressure 988.4mb

More Historic Weather Station data

Upgrade to MSW Pro to gain access to the past 30 days of data for over 8000 Wavebouys and Weather Stations around the globe.

Join Pro

Comparision Forecast

View Surf forecast
   
Thu 09/18 5:50am 10ft 8s 7s 16 20 mph 988.4mb 58f 58f
4:50am 11.5ft 10s 7s 18 22 mph 989.2mb 58f 58f
3:50am 13ft 10s 7s 25 31 mph 989.9mb 58f 57f
2:50am 13ft 10s 7s 29 36 mph 990.8mb 58f 57f
1:50am 13ft 8s 6s 29 34 mph 992.1mb 58f 56f
12:50am 13ft 8s 6s 29 34 mph 993.3mb 58f 56f
Wed 09/17 11:50pm 12ft 8s 6s 29 36 mph 994.5mb 58f 56f
10:50pm 10ft 7s 6s 29 38 mph 995.6mb 58f 56f
9:50pm 11ft 8s 6s 31 38 mph 996.7mb 58f 56f
8:50pm 8.5ft 7s 5s 27 36 mph 997.8mb 58f 57f
7:50pm 8ft 6s 5s 31 36 mph 998.6mb 58f 56f
6:50pm 7.5ft 6s 5s 29 34 mph 999.3mb 58f 57f
5:50pm 7ft 6s 5s 25 31 mph 1000mb 58f 57f
4:50pm 6ft 5s 5s 22 27 mph 1001mb 58f 56f
3:50pm 5.5ft 5s 5s 25 29 mph 1001.9mb 58f 57f
2:50pm 5.5ft 5s 5s 22 29 mph 1002.5mb 58f 57f
1:50pm 5ft 7s 5s 22 25 mph 1003.4mb 58f 58f
12:50pm 5ft 9s 5s 18 20 mph 1004.5mb 58f 57f
11:50am 5ft 8s 5s 18 22 mph 1005.7mb 58f 57f
10:50am 5.5ft 8s 5s 16 18 mph 1006.9mb 58f 58f
9:50am 6ft 9s 6s 18 20 mph 1007.8mb 58f 58f
8:50am 5.5ft 9s 6s 16 18 mph 1008.4mb 58f 58f
7:50am 5.5ft 9s 7s 13 16 mph 1009.1mb 58f 57f
6:50am 5.5ft 9s 7s 13 16 mph 1009.6mb 58f 58f
5:50am 5ft 9s 7s 11 13 mph 1010.1mb 58f 58f
4:50am 5ft 10s 7s 9 11 mph 1010.5mb 58f 58f
3:50am 5.5ft 11s 7s 11 13 mph 1010.9mb 58f 58f
2:50am 5ft 11s 7s 9
mph
1011.4mb 58f 58f
1:50am 5ft 11s 7s 7
mph
1011.8mb 58f 58f
12:50am 5.5ft 11s 7s 4 7 mph 1012.4mb 58f 58f
Tue 09/16 11:50pm 6ft 7s 7s 2 4 mph 1013mb 58f 58f
10:50pm 7ft 9s 7s 4 7 mph 1013.3mb 58f 58f
9:50pm 7ft 11s 7s 9 11 mph 1013.6mb 58f 58f
8:50pm 7ft 8s 7s 4 7 mph 1013.6mb 58f 58f
7:50pm 7ft 11s 7s 7 9 mph 1013.5mb 58f 57f
6:50pm 7.5ft 10s 8s 11 13 mph 1013.2mb 58f 58f
5:50pm 7.5ft 11s 8s 7 11 mph 1013mb 58f 58f
4:50pm 7ft 11s 8s 7 9 mph 1013mb 58f 58f
3:50pm 7.5ft 11s 8s 7 9 mph 1012.9mb 58f 58f
2:50pm 8ft 10s 8s 9 11 mph 1012.7mb 58f 58f
1:50pm 7.5ft 12s 8s 9 13 mph 1012.6mb 58f 58f
12:50pm 7ft 13s 7s 9 11 mph 1012.8mb 58f 58f
11:50am 7ft 12s 7s 11 13 mph 1012.9mb 58f 58f
10:50am 8ft 12s 8s 11 13 mph 1013.1mb 58f 58f
9:50am 7.5ft 13s 7s 13 16 mph 1013mb 58f 58f
8:50am 9ft 13s 8s 9 13 mph 1012.7mb 58f 58f
7:50am 8.5ft 12s 7s 9 11 mph 1012.6mb 58f 58f
6:50am 9ft 13s 8s 9 11 mph 1012.4mb 58f 58f
5:50am 10ft 13s 8s 11 13 mph 1012.2mb 58f 58f
4:50am 10ft 13s 8s 11 13 mph 1011.9mb 58f 58f
3:50am 10ft 13s 9s 11 13 mph 1011.7mb 58f 58f
2:50am 9ft 14s 8s 11 13 mph 1011.8mb 58f 58f
1:50am 8ft 13s 8s 9 11 mph 1012.3mb 58f 58f
12:50am 8ft 12s 8s 11 13 mph 1013.8mb 58f 58f
Mon 09/15 11:50pm 7.5ft 14s 7s 11 13 mph 1013.1mb 58f 58f
10:50pm 9ft 13s 8s 11 13 mph 1012mb 58f 58f
9:50pm 9ft 13s 8s 11 13 mph 1011.1mb 58f 58f
8:50pm 8ft 13s 7s 11 16 mph 1010.7mb 58f 58f
7:50pm 9.5ft 13s 8s 11 13 mph 1010.4mb 58f 58f
6:50pm 10ft 13s 8s 13 16 mph 1010.1mb 58f 58f
5:50pm 10.5ft 14s 8s 13 18 mph 1009.7mb 58f 58f
4:50pm 10ft 13s 8s 16 18 mph 1009.2mb 58f 58f
3:50pm 10.5ft 14s 8s 16 20 mph 1009.1mb 58f 58f
2:50pm 11.5ft 13s 8s 18 22 mph 1008.9mb 58f 58f
1:50pm 10.5ft 14s 8s 16 22 mph 1008.8mb 58f 58f
12:50pm 9.5ft 14s 7s 18 22 mph 1008.8mb 58f 58f
11:50am 10ft 13s 7s 16 18 mph 1009mb 58f 58f
10:50am 9ft 11s 7s 16 20 mph 1008.9mb 58f 58f
9:50am 9ft 12s 7s 16 20 mph 1009mb 58f 58f
8:50am 9ft 11s 8s 16 20 mph 1009mb 58f 58f
7:50am 9ft 11s 7s 16 20 mph 1008.7mb 58f 57f
6:50am 7.5ft 10s 6s 16 18 mph 1008.3mb 58f 57f
5:50am 7ft 12s 6s 18 22 mph 1007.9mb 58f 56f
4:50am 6.5ft 8s 5s 18 20 mph 1007.4mb 58f 56f
3:50am 8ft 9s 6s 22 27 mph 1006.7mb 58f 56f
2:50am 8.5ft 9s 6s 20 25 mph 1006.1mb 58f 59f
1:50am 8.5ft 9s 6s 22 29 mph 1006.6mb 58f 59f
12:50am 9ft 9s 6s 22 27 mph 1007.3mb 58f 59f
Sun 09/14 11:50pm 7.5ft 9s 6s 20 25 mph 1008.1mb 58f 60f
10:50pm 8ft 10s 6s 18 25 mph 1008.8mb 58f 59f
9:50pm 7ft 8s 6s 20 25 mph 1009.3mb 58f 59f
8:50pm 7ft 9s 6s 18 20 mph 1009.6mb 58f 59f
7:50pm 7.5ft 9s 6s 16 18 mph 1009.9mb 58f 59f
6:50pm 7ft 10s 6s 16 18 mph 1010.2mb 58f 59f
5:50pm 7ft 10s 6s 16 18 mph 1010.2mb 58f 59f
4:50pm 7.5ft 10s 6s 18 20 mph 1010mb 58f 59f
3:50pm 7ft 8s 6s 18 20 mph 1010mb 58f 59f
2:50pm 8ft 9s 6s 18 22 mph 1009.8mb 58f 59f
1:50pm 9ft 8s 6s 20 25 mph 1009.7mb 58f 59f
12:50pm 9ft 9s 6s 22 27 mph 1009.9mb 58f 59f
11:50am 10ft 9s 6s 25 29 mph 1010.1mb 58f 60f
10:50am 9ft 9s 6s 25 27 mph 1010.4mb 58f 59f
9:50am 9ft 10s 6s 22 27 mph 1010.8mb 58f 59f
8:50am 8.5ft 8s 6s 22 27 mph 1011mb 58f 59f
7:50am 9.5ft 8s 6s 22 29 mph 1011.1mb 58f 59f
6:50am 8ft 8s 6s 25 29 mph 1011.2mb 58f 59f